Time;durP1;ratioP1;P1;durP2;ratioP2;P2;SDS_P1;SDS_P2;PMS_P1;PMS_P2;Temp;Humidity;BMP_temperature;BMP_pressure;BME280_temperature;BME280_humidity;BME280_pressure;Samples;Min_cycle;Max_cycle;Signal;HPM_P1;HPM_P2
2024/04/06 00:00:16;;;;;;;3.15;1.73;;;;;;;;;;5037590;28;20039;-75
2024/04/06 00:02:42;;;;;;;4.18;1.40;;;;;;;;;;5055036;28;20030;-76
2024/04/06 00:05:09;;;;;;;2.83;1.45;;;;;;;;;;5055089;28;20079;-72
2024/04/06 00:07:36;;;;;;;6.63;2.10;;;;;;;;;;5055399;28;20025;-74
2024/04/06 00:10:02;;;;;;;6.75;1.55;;;;;;;;;;5055826;28;20049;-73
2024/04/06 00:12:28;;;;;;;4.00;1.50;;;;;;;;;;5055377;28;20029;-75
2024/04/06 00:14:54;;;;;;;8.40;2.28;;;;;;;;;;5056184;28;20025;-73
2024/04/06 00:17:21;;;;;;;3.05;1.48;;;;;;;;;;5038378;28;20025;-73
2024/04/06 00:19:47;;;;;;;5.72;1.42;;;;;;;;;;5056041;28;20024;-74
2024/04/06 00:22:13;;;;;;;4.93;1.65;;;;;;;;;;5055768;28;20033;-74
2024/04/06 00:24:39;;;;;;;5.00;1.83;;;;;;;;;;5038256;28;20043;-75
2024/04/06 00:27:05;;;;;;;3.42;1.70;;;;;;;;;;5056489;28;20040;-73
2024/04/06 00:29:31;;;;;;;2.70;1.23;;;;;;;;;;5038175;28;20051;-74
2024/04/06 00:31:57;;;;;;;6.45;1.88;;;;;;;;;;5055260;28;20091;-74
2024/04/06 00:34:23;;;;;;;2.53;1.13;;;;;;;;;;5055159;28;20044;-75
2024/04/06 00:36:50;;;;;;;6.50;1.90;;;;;;;;;;5055488;28;20033;-74
2024/04/06 00:39:16;;;;;;;4.90;1.92;;;;;;;;;;5037687;28;20035;-76
2024/04/06 00:41:42;;;;;;;3.42;1.10;;;;;;;;;;5054941;28;20025;-75
2024/04/06 00:44:08;;;;;;;4.35;1.40;;;;;;;;;;5037466;28;20032;-74
2024/04/06 00:46:34;;;;;;;6.07;1.77;;;;;;;;;;5055359;28;20029;-75
2024/04/06 00:49:01;;;;;;;3.60;1.25;;;;;;;;;;5055421;28;20021;-75
2024/04/06 00:51:27;;;;;;;3.22;1.27;;;;;;;;;;5036356;28;20032;-74
2024/04/06 00:53:53;;;;;;;5.80;2.17;;;;;;;;;;5037010;28;20017;-74
2024/04/06 00:56:19;;;;;;;3.80;1.38;;;;;;;;;;5054634;28;20024;-73
2024/04/06 00:58:45;;;;;;;6.45;1.63;;;;;;;;;;5054913;28;20021;-74
2024/04/06 01:01:11;;;;;;;3.17;1.63;;;;;;;;;;5054371;28;20550;-74
2024/04/06 01:03:37;;;;;;;3.28;1.65;;;;;;;;;;5036435;28;20087;-73
2024/04/06 01:06:04;;;;;;;1.90;1.30;;;;;;;;;;5054607;28;20027;-76
2024/04/06 01:08:32;;;;;;;4.95;1.50;;;;;;;;;;5054370;28;20142;-74
2024/04/06 01:11:00;;;;;;;5.40;1.75;;;;;;;;;;5036350;28;20040;-75
2024/04/06 01:13:26;;;;;;;9.55;2.03;;;;;;;;;;5054147;28;20062;-74
2024/04/06 01:15:52;;;;;;;4.40;1.73;;;;;;;;;;5054709;28;20029;-75
2024/04/06 01:18:18;;;;;;;6.25;2.22;;;;;;;;;;5054378;28;20471;-74
2024/04/06 01:20:46;;;;;;;2.78;1.23;;;;;;;;;;5054512;28;20043;-74
2024/04/06 01:23:12;;;;;;;5.28;2.05;;;;;;;;;;5058064;28;20021;-75
2024/04/06 01:25:38;;;;;;;3.80;1.40;;;;;;;;;;5044806;28;20039;-75
2024/04/06 01:28:04;;;;;;;5.10;2.08;;;;;;;;;;5059274;28;20032;-74
2024/04/06 01:30:30;;;;;;;3.55;1.52;;;;;;;;;;5040485;28;20045;-74
2024/04/06 01:32:57;;;;;;;6.60;1.80;;;;;;;;;;5058034;28;20029;-75
2024/04/06 01:35:23;;;;;;;4.10;1.80;;;;;;;;;;5040695;28;20112;-74
2024/04/06 01:37:49;;;;;;;3.58;2.17;;;;;;;;;;5057072;28;20047;-75
2024/04/06 01:40:15;;;;;;;3.28;2.08;;;;;;;;;;5036649;28;20134;-75
2024/04/06 01:42:41;;;;;;;6.15;2.08;;;;;;;;;;5053946;28;20078;-74
2024/04/06 01:45:07;;;;;;;7.72;2.10;;;;;;;;;;5053744;28;20051;-74
2024/04/06 01:47:34;;;;;;;4.82;2.38;;;;;;;;;;5054093;28;20032;-73
2024/04/06 01:50:07;;;;;;;3.25;2.00;;;;;;;;;;5053931;28;20078;-75
2024/04/06 01:52:33;;;;;;;5.55;2.90;;;;;;;;;;5053251;28;20105;-74
2024/04/06 01:55:00;;;;;;;5.47;2.60;;;;;;;;;;5036604;28;20475;-74
2024/04/06 01:57:26;;;;;;;5.80;2.53;;;;;;;;;;5054698;28;20032;-74
2024/04/06 01:59:52;;;;;;;4.60;2.45;;;;;;;;;;5054732;28;20490;-74
2024/04/06 02:02:18;;;;;;;2.85;2.03;;;;;;;;;;5036138;28;20037;-74
2024/04/06 02:04:47;;;;;;;6.07;2.40;;;;;;;;;;5053711;28;20083;-72
2024/04/06 02:07:16;;;;;;;4.63;2.85;;;;;;;;;;5053841;28;20079;-74
2024/04/06 02:09:42;;;;;;;7.13;3.13;;;;;;;;;;5053879;28;20033;-74
2024/04/06 02:12:08;;;;;;;5.47;2.72;;;;;;;;;;5053082;28;20391;-74
2024/04/06 02:14:34;;;;;;;5.82;2.78;;;;;;;;;;5053377;28;20013;-74
2024/04/06 02:17:01;;;;;;;3.83;2.85;;;;;;;;;;5035902;28;20021;-73
2024/04/06 02:19:27;;;;;;;6.68;3.00;;;;;;;;;;5035793;28;20025;-74
2024/04/06 02:21:53;;;;;;;6.47;2.88;;;;;;;;;;5052085;28;20068;-74
2024/04/06 02:24:20;;;;;;;9.45;2.70;;;;;;;;;;5035341;28;20025;-74
2024/04/06 02:26:46;;;;;;;5.38;2.78;;;;;;;;;;5053428;28;20121;-74
2024/04/06 02:29:12;;;;;;;6.78;3.88;;;;;;;;;;5055035;28;20025;-73
2024/04/06 02:31:38;;;;;;;6.18;2.88;;;;;;;;;;5038093;28;20401;-74
2024/04/06 02:34:04;;;;;;;4.22;3.03;;;;;;;;;;5054053;28;20025;-74
2024/04/06 02:36:30;;;;;;;8.10;3.13;;;;;;;;;;5052635;28;20052;-74
2024/04/06 02:38:56;;;;;;;7.00;3.03;;;;;;;;;;5053171;28;20028;-73
2024/04/06 02:41:23;;;;;;;7.15;3.50;;;;;;;;;;5035213;28;20029;-73
2024/04/06 02:43:52;;;;;;;10.73;3.42;;;;;;;;;;5053191;28;20064;-73
2024/04/06 02:46:18;;;;;;;8.18;3.22;;;;;;;;;;5034571;28;20040;-75
2024/04/06 02:48:44;;;;;;;7.38;3.30;;;;;;;;;;5052553;28;20079;-74
2024/04/06 02:51:10;;;;;;;4.75;2.83;;;;;;;;;;5034215;28;20029;-75
2024/04/06 02:53:36;;;;;;;5.30;3.10;;;;;;;;;;5052641;28;20044;-73
2024/04/06 02:56:02;;;;;;;8.73;3.78;;;;;;;;;;5034538;28;20388;-73
2024/04/06 02:58:28;;;;;;;6.05;3.53;;;;;;;;;;5053077;28;20021;-74
2024/04/06 03:00:54;;;;;;;5.68;2.95;;;;;;;;;;5053607;28;20032;-74
2024/04/06 03:03:20;;;;;;;6.50;3.20;;;;;;;;;;5034773;28;20041;-73
2024/04/06 03:05:47;;;;;;;4.30;2.70;;;;;;;;;;5034147;28;20025;-74
2024/04/06 03:08:13;;;;;;;6.60;3.15;;;;;;;;;;5052234;28;20056;-73
2024/04/06 03:10:39;;;;;;;4.78;3.35;;;;;;;;;;5051782;28;20036;-73
2024/04/06 03:13:05;;;;;;;5.47;2.88;;;;;;;;;;5033755;28;20017;-73
2024/04/06 03:15:31;;;;;;;6.65;3.05;;;;;;;;;;5052191;28;20467;-73
2024/04/06 03:17:58;;;;;;;6.57;3.15;;;;;;;;;;5035362;28;20025;-74
2024/04/06 03:20:24;;;;;;;9.70;2.55;;;;;;;;;;5053042;28;20020;-73
2024/04/06 03:23:02;;;;;;;4.90;2.15;;;;;;;;;;5053248;28;20044;-73
2024/04/06 03:25:28;;;;;;;5.43;2.75;;;;;;;;;;5052813;28;20491;-75
2024/04/06 03:27:54;;;;;;;4.07;2.90;;;;;;;;;;5053013;28;20103;-73
2024/04/06 03:30:20;;;;;;;8.63;2.78;;;;;;;;;;5052667;28;20036;-75
2024/04/06 03:32:46;;;;;;;7.22;3.25;;;;;;;;;;5051620;28;20029;-73
2024/04/06 03:35:12;;;;;;;5.65;2.92;;;;;;;;;;5052117;28;20013;-73
2024/04/06 03:37:38;;;;;;;4.97;2.85;;;;;;;;;;5051936;28;20021;-75
2024/04/06 03:40:05;;;;;;;6.53;3.22;;;;;;;;;;5051654;28;20456;-74
2024/04/06 03:42:31;;;;;;;8.05;3.60;;;;;;;;;;5051047;28;20025;-74
2024/04/06 03:44:57;;;;;;;8.57;3.42;;;;;;;;;;5051659;28;20071;-74
2024/04/06 03:47:23;;;;;;;4.60;2.88;;;;;;;;;;5051422;28;20494;-74
2024/04/06 03:49:49;;;;;;;9.13;3.10;;;;;;;;;;5051690;28;20029;-74
2024/04/06 03:52:15;;;;;;;6.65;3.58;;;;;;;;;;5051219;28;20021;-74
2024/04/06 03:54:41;;;;;;;8.68;3.03;;;;;;;;;;5051800;28;20029;-74
2024/04/06 03:57:07;;;;;;;4.30;2.72;;;;;;;;;;5051817;28;20028;-73
2024/04/06 03:59:35;;;;;;;6.32;2.40;;;;;;;;;;5052637;28;20021;-74
2024/04/06 04:02:01;;;;;;;4.18;2.58;;;;;;;;;;5037370;28;20025;-74
2024/04/06 04:04:27;;;;;;;5.32;2.58;;;;;;;;;;5057203;28;20032;-74
2024/04/06 04:06:53;;;;;;;4.47;2.50;;;;;;;;;;5055189;28;20036;-74
2024/04/06 04:09:19;;;;;;;5.78;2.05;;;;;;;;;;5052487;28;20021;-73
2024/04/06 04:11:45;;;;;;;3.70;1.88;;;;;;;;;;5051367;28;20029;-74
2024/04/06 04:14:11;;;;;;;3.55;1.38;;;;;;;;;;5033998;28;20021;-75
2024/04/06 04:16:37;;;;;;;4.20;1.77;;;;;;;;;;5052438;28;20329;-73
2024/04/06 04:19:03;;;;;;;2.30;1.17;;;;;;;;;;5052929;28;20052;-75
2024/04/06 04:21:29;;;;;;;3.70;1.30;;;;;;;;;;5057350;28;20021;-74
2024/04/06 04:23:55;;;;;;;3.38;1.58;;;;;;;;;;5058936;28;20018;-74
2024/04/06 04:26:21;;;;;;;4.85;1.50;;;;;;;;;;5051652;28;20060;-74
2024/04/06 04:28:47;;;;;;;2.92;1.75;;;;;;;;;;5033751;28;20029;-74
2024/04/06 04:31:15;;;;;;;3.83;2.17;;;;;;;;;;5051191;28;20025;-74
2024/04/06 04:33:41;;;;;;;6.18;1.67;;;;;;;;;;5051513;28;20029;-74
2024/04/06 04:36:07;;;;;;;4.40;1.55;;;;;;;;;;5051664;28;20017;-74
2024/04/06 04:38:34;;;;;;;3.78;1.48;;;;;;;;;;5051232;28;20028;-74
2024/04/06 04:41:00;;;;;;;5.60;2.30;;;;;;;;;;5051775;28;20033;-75
2024/04/06 04:43:26;;;;;;;4.45;1.50;;;;;;;;;;5054719;28;20021;-74
2024/04/06 04:45:52;;;;;;;6.10;1.30;;;;;;;;;;5079877;23;20037;-73
2024/04/06 04:48:18;;;;;;;6.55;1.30;;;;;;;;;;5056976;28;20021;-73
2024/04/06 04:50:44;;;;;;;5.10;1.40;;;;;;;;;;5059445;28;20115;-73
2024/04/06 04:53:10;;;;;;;3.13;1.48;;;;;;;;;;5055973;28;20028;-73
2024/04/06 04:55:37;;;;;;;4.63;1.33;;;;;;;;;;5056817;28;20020;-74
2024/04/06 04:58:03;;;;;;;3.67;1.20;;;;;;;;;;5056407;28;20021;-74
2024/04/06 05:00:29;;;;;;;4.03;1.92;;;;;;;;;;5056499;28;20369;-73
2024/04/06 05:02:56;;;;;;;4.22;1.05;;;;;;;;;;5056056;28;20052;-73
2024/04/06 05:05:22;;;;;;;4.43;1.00;;;;;;;;;;5056162;28;20024;-73
2024/04/06 05:07:48;;;;;;;7.05;1.30;;;;;;;;;;5074422;28;20372;-74
2024/04/06 05:10:15;;;;;;;3.50;1.00;;;;;;;;;;5057177;28;20032;-74
2024/04/06 05:12:41;;;;;;;4.03;1.00;;;;;;;;;;5067247;28;20483;-73
2024/04/06 05:15:07;;;;;;;5.03;1.45;;;;;;;;;;5067863;28;20059;-74
2024/04/06 05:17:36;;;;;;;4.40;1.10;;;;;;;;;;5050761;28;20021;-74
2024/04/06 05:20:02;;;;;;;6.50;1.27;;;;;;;;;;5054481;28;20013;-73
2024/04/06 05:22:28;;;;;;;2.97;1.90;;;;;;;;;;5047734;28;20029;-74
2024/04/06 05:24:54;;;;;;;2.22;1.10;;;;;;;;;;5038453;28;20029;-73
2024/04/06 05:27:20;;;;;;;3.63;1.10;;;;;;;;;;5054279;28;20120;-74
2024/04/06 05:29:46;;;;;;;3.55;1.10;;;;;;;;;;5063756;28;20067;-73
2024/04/06 05:32:12;;;;;;;4.50;1.10;;;;;;;;;;5054608;28;20025;-74
2024/04/06 05:34:38;;;;;;;3.10;0.75;;;;;;;;;;5073486;28;20021;-74
2024/04/06 05:37:05;;;;;;;4.88;1.08;;;;;;;;;;5073745;28;20043;-74
2024/04/06 05:39:32;;;;;;;2.67;0.75;;;;;;;;;;5055341;28;20021;-73
2024/04/06 05:41:58;;;;;;;2.67;1.00;;;;;;;;;;5073385;28;20152;-73
2024/04/06 05:44:24;;;;;;;8.95;1.02;;;;;;;;;;5055638;28;20024;-73
2024/04/06 05:46:50;;;;;;;2.97;1.17;;;;;;;;;;5055045;28;20406;-74
2024/04/06 05:49:16;;;;;;;3.47;1.38;;;;;;;;;;5054981;28;20039;-72
2024/04/06 05:51:42;;;;;;;5.68;0.98;;;;;;;;;;5054422;28;20093;-73
2024/04/06 05:54:08;;;;;;;3.92;0.90;;;;;;;;;;5054491;28;20021;-72
2024/04/06 05:56:34;;;;;;;4.60;1.10;;;;;;;;;;5054916;28;20074;-73
2024/04/06 05:59:00;;;;;;;2.08;0.85;;;;;;;;;;5054469;28;20056;-72
2024/04/06 06:01:26;;;;;;;1.90;0.80;;;;;;;;;;5054515;28;20028;-73
2024/04/06 06:03:53;;;;;;;2.70;0.73;;;;;;;;;;5054435;28;20460;-73
2024/04/06 06:06:19;;;;;;;4.07;1.20;;;;;;;;;;5037801;28;20032;-73
2024/04/06 06:08:45;;;;;;;3.97;1.20;;;;;;;;;;5054102;28;20029;-73
2024/04/06 06:11:11;;;;;;;2.95;1.40;;;;;;;;;;5053743;28;20059;-73
2024/04/06 06:13:37;;;;;;;4.70;1.35;;;;;;;;;;5053923;28;20024;-73
2024/04/06 06:16:03;;;;;;;2.17;0.77;;;;;;;;;;5053855;28;20107;-74
2024/04/06 06:18:29;;;;;;;5.70;1.13;;;;;;;;;;5054380;28;20024;-72
2024/04/06 06:20:55;;;;;;;4.13;1.08;;;;;;;;;;5072640;28;20498;-73
2024/04/06 06:23:21;;;;;;;2.13;0.70;;;;;;;;;;5055522;28;20150;-74
2024/04/06 06:25:47;;;;;;;2.95;0.93;;;;;;;;;;5054928;28;20021;-73
2024/04/06 06:28:14;;;;;;;3.65;1.10;;;;;;;;;;5054918;28;20096;-73
2024/04/06 06:30:43;;;;;;;4.60;1.23;;;;;;;;;;5055050;28;20039;-74
2024/04/06 06:33:10;;;;;;;5.22;0.93;;;;;;;;;;5054983;28;20029;-72
2024/04/06 06:35:36;;;;;;;1.73;0.75;;;;;;;;;;5054732;28;20411;-72
2024/04/06 06:38:02;;;;;;;3.25;0.95;;;;;;;;;;5054651;28;20059;-74
2024/04/06 06:40:28;;;;;;;1.95;0.82;;;;;;;;;;5054361;28;20020;-73
2024/04/06 06:42:54;;;;;;;1.85;0.85;;;;;;;;;;5054179;28;20082;-74
2024/04/06 06:45:20;;;;;;;3.67;1.00;;;;;;;;;;5060962;28;20032;-73
2024/04/06 06:47:46;;;;;;;2.15;1.40;;;;;;;;;;5054267;28;20032;-74
2024/04/06 06:50:14;;;;;;;3.97;1.95;;;;;;;;;;5054007;28;20043;-72
2024/04/06 06:52:40;;;;;;;2.75;0.68;;;;;;;;;;5052882;28;20107;-74
2024/04/06 06:55:09;;;;;;;3.25;1.10;;;;;;;;;;5053458;28;20052;-71
2024/04/06 06:57:35;;;;;;;2.80;1.13;;;;;;;;;;5053608;28;20024;-73
2024/04/06 07:00:01;;;;;;;4.13;1.00;;;;;;;;;;5071327;28;20052;-73
2024/04/06 07:02:27;;;;;;;2.28;0.82;;;;;;;;;;5053676;28;20059;-73
2024/04/06 07:04:54;;;;;;;1.80;0.90;;;;;;;;;;5053418;28;20036;-74
2024/04/06 07:07:20;;;;;;;5.32;1.10;;;;;;;;;;5053211;28;20119;-73
2024/04/06 07:09:46;;;;;;;2.63;1.08;;;;;;;;;;5053318;28;20056;-74
2024/04/06 07:12:12;;;;;;;2.05;1.02;;;;;;;;;;5052454;28;20063;-74
2024/04/06 07:14:38;;;;;;;2.72;1.00;;;;;;;;;;5053668;28;20012;-74
2024/04/06 07:17:04;;;;;;;7.00;1.10;;;;;;;;;;5053242;28;20052;-73
2024/04/06 07:19:30;;;;;;;4.68;1.83;;;;;;;;;;5053885;28;20025;-73
2024/04/06 07:21:56;;;;;;;3.08;0.85;;;;;;;;;;5071017;28;20382;-72
2024/04/06 07:24:22;;;;;;;2.13;0.77;;;;;;;;;;5053263;28;20028;-74
2024/04/06 07:26:48;;;;;;;1.58;0.98;;;;;;;;;;5053443;28;20024;-75
2024/04/06 07:29:15;;;;;;;1.98;0.98;;;;;;;;;;5053284;28;20094;-74
2024/04/06 07:31:41;;;;;;;3.45;1.23;;;;;;;;;;5070695;28;20027;-76
2024/04/06 07:34:07;;;;;;;5.13;1.35;;;;;;;;;;5071569;28;20017;-75
2024/04/06 07:36:33;;;;;;;5.22;0.88;;;;;;;;;;5053729;28;20032;-72
2024/04/06 07:38:59;;;;;;;4.10;0.75;;;;;;;;;;5053622;28;20021;-72
2024/04/06 07:41:25;;;;;;;4.70;0.70;;;;;;;;;;5052865;28;20032;-73
2024/04/06 07:43:53;;;;;;;3.03;0.63;;;;;;;;;;5053045;28;20024;-72
2024/04/06 07:46:19;;;;;;;3.33;0.90;;;;;;;;;;5053080;28;20224;-73
2024/04/06 07:48:45;;;;;;;2.55;0.85;;;;;;;;;;5053395;28;20541;-73
2024/04/06 07:51:11;;;;;;;4.13;0.70;;;;;;;;;;5053240;28;20032;-74
2024/04/06 07:53:37;;;;;;;3.05;1.13;;;;;;;;;;5071455;28;20024;-72
2024/04/06 07:56:03;;;;;;;3.10;0.63;;;;;;;;;;5053452;28;20016;-74
2024/04/06 07:58:29;;;;;;;3.67;0.90;;;;;;;;;;5071628;28;20020;-74
2024/04/06 08:00:55;;;;;;;4.97;1.10;;;;;;;;;;5053592;28;20033;-75
2024/04/06 08:03:21;;;;;;;4.47;0.98;;;;;;;;;;5054038;28;20293;-74
2024/04/06 08:05:51;;;;;;;2.53;0.70;;;;;;;;;;5053705;28;20024;-73
2024/04/06 08:08:17;;;;;;;2.08;0.90;;;;;;;;;;5054309;28;20121;-74
2024/04/06 08:10:43;;;;;;;2.80;0.93;;;;;;;;;;5054762;28;20025;-75
2024/04/06 08:13:12;;;;;;;5.13;1.00;;;;;;;;;;5053705;28;20020;-74
2024/04/06 08:15:38;;;;;;;4.05;0.70;;;;;;;;;;5053947;28;20025;-75
2024/04/06 08:18:04;;;;;;;3.70;0.90;;;;;;;;;;5054196;28;20033;-75
2024/04/06 08:20:30;;;;;;;3.00;1.02;;;;;;;;;;5057128;28;20489;-75
2024/04/06 08:22:56;;;;;;;3.47;1.27;;;;;;;;;;5057279;28;20065;-74
2024/04/06 08:25:22;;;;;;;2.13;0.68;;;;;;;;;;5057447;28;20586;-75
2024/04/06 08:27:48;;;;;;;1.92;0.65;;;;;;;;;;5057396;28;20397;-74
2024/04/06 08:30:14;;;;;;;2.80;0.82;;;;;;;;;;5057735;28;20394;-76
2024/04/06 08:32:43;;;;;;;3.25;0.80;;;;;;;;;;5056931;28;20031;-75
2024/04/06 08:35:14;;;;;;;2.38;0.82;;;;;;;;;;5058003;28;20016;-75
2024/04/06 08:37:40;;;;;;;2.53;0.88;;;;;;;;;;5058245;28;20104;-75
2024/04/06 08:40:07;;;;;;;1.55;0.90;;;;;;;;;;5056710;28;20028;-73
2024/04/06 08:42:36;;;;;;;4.90;0.90;;;;;;;;;;5056245;28;20150;-74
2024/04/06 08:45:02;;;;;;;2.15;0.68;;;;;;;;;;5056362;28;20024;-73
2024/04/06 08:47:30;;;;;;;2.35;0.80;;;;;;;;;;5056561;28;20382;-73
2024/04/06 08:49:56;;;;;;;1.98;0.93;;;;;;;;;;5056276;28;20037;-73
2024/04/06 08:52:23;;;;;;;6.65;0.90;;;;;;;;;;5056498;28;20048;-74
2024/04/06 08:54:50;;;;;;;2.40;0.77;;;;;;;;;;5056326;28;20536;-75
2024/04/06 08:57:16;;;;;;;1.55;0.82;;;;;;;;;;5056602;28;20375;-76
2024/04/06 08:59:43;;;;;;;1.73;0.75;;;;;;;;;;5074042;28;20028;-74
2024/04/06 09:02:09;;;;;;;2.40;1.05;;;;;;;;;;5056015;28;20455;-75
2024/04/06 09:04:35;;;;;;;6.15;1.52;;;;;;;;;;5056496;28;20032;-72
2024/04/06 09:07:01;;;;;;;1.42;0.73;;;;;;;;;;5056359;28;20150;-73
2024/04/06 09:09:27;;;;;;;4.20;1.23;;;;;;;;;;5075279;28;20032;-75
2024/04/06 09:11:53;;;;;;;5.10;1.23;;;;;;;;;;5056233;28;20059;-76
2024/04/06 09:14:19;;;;;;;1.65;0.63;;;;;;;;;;5057253;28;20020;-75
2024/04/06 09:16:45;;;;;;;1.40;0.80;;;;;;;;;;5057705;28;20021;-74
2024/04/06 09:19:11;;;;;;;1.67;0.70;;;;;;;;;;5061342;28;20020;-75
2024/04/06 09:21:37;;;;;;;2.92;0.52;;;;;;;;;;5058539;28;20036;-73
2024/04/06 09:24:04;;;;;;;3.25;0.80;;;;;;;;;;5057461;28;20029;-75
2024/04/06 09:26:33;;;;;;;2.95;0.88;;;;;;;;;;5074744;28;20056;-75
2024/04/06 09:29:00;;;;;;;2.65;0.60;;;;;;;;;;5056603;28;20020;-72
2024/04/06 09:31:27;;;;;;;4.38;0.77;;;;;;;;;;5073171;28;20040;-73
2024/04/06 09:33:54;;;;;;;1.30;0.70;;;;;;;;;;5055525;28;20017;-72
2024/04/06 09:36:20;;;;;;;2.85;1.10;;;;;;;;;;5055028;28;20028;-73
2024/04/06 09:38:50;;;;;;;1.88;0.75;;;;;;;;;;5073869;28;20043;-72
2024/04/06 09:41:17;;;;;;;0.47;0.32;;;;;;;;;;5073402;28;20390;-73
2024/04/06 09:43:44;;;;;;;3.20;1.00;;;;;;;;;;5055118;28;20044;-74
2024/04/06 09:46:11;;;;;;;2.88;0.50;;;;;;;;;;5054546;28;20037;-73
2024/04/06 09:48:38;;;;;;;2.03;0.68;;;;;;;;;;5073552;28;20052;-73
2024/04/06 09:51:05;;;;;;;1.52;0.77;;;;;;;;;;5054732;28;20029;-74
2024/04/06 09:53:32;;;;;;;1.58;0.70;;;;;;;;;;5054310;28;20593;-73
2024/04/06 09:55:59;;;;;;;2.35;0.65;;;;;;;;;;5055905;28;20127;-74
2024/04/06 09:58:28;;;;;;;1.95;0.50;;;;;;;;;;5054865;28;20035;-74
2024/04/06 10:00:54;;;;;;;5.68;1.00;;;;;;;;;;5055543;28;20025;-72
2024/04/06 10:03:33;;;;;;;3.42;1.02;;;;;;;;;;5055427;28;20098;-75
2024/04/06 10:06:10;;;;;;;1.13;0.60;;;;;;;;;;5054902;28;20120;-74
2024/04/06 10:08:49;;;;;;;2.75;0.50;;;;;;;;;;5055461;28;20079;-75
2024/04/06 10:11:22;;;;;;;0.93;0.50;;;;;;;;;;5054802;28;20527;-75
2024/04/06 10:14:04;;;;;;;1.92;0.70;;;;;;;;;;5055255;28;20021;-74
2024/04/06 10:16:32;;;;;;;3.30;0.50;;;;;;;;;;5054664;28;20501;-74
2024/04/06 10:19:01;;;;;;;5.90;1.15;;;;;;;;;;5055187;28;20028;-73
2024/04/06 10:21:31;;;;;;;4.10;0.73;;;;;;;;;;5055103;28;20024;-74
2024/04/06 10:23:57;;;;;;;3.80;0.85;;;;;;;;;;5055818;28;20028;-73
2024/04/06 10:26:23;;;;;;;4.20;1.58;;;;;;;;;;5056138;28;20025;-74
2024/04/06 10:28:50;;;;;;;2.33;0.77;;;;;;;;;;5055845;28;20039;-72
2024/04/06 10:31:16;;;;;;;4.40;0.75;;;;;;;;;;5053749;28;20028;-75
2024/04/06 10:33:43;;;;;;;3.20;0.55;;;;;;;;;;5054898;28;20435;-72
2024/04/06 10:36:12;;;;;;;2.97;0.70;;;;;;;;;;5072621;28;20118;-75
2024/04/06 10:38:41;;;;;;;2.00;0.98;;;;;;;;;;5072597;28;20089;-76
2024/04/06 10:41:09;;;;;;;2.38;0.70;;;;;;;;;;5053869;28;20035;-73
2024/04/06 10:43:38;;;;;;;2.05;0.75;;;;;;;;;;5053241;28;20100;-74
2024/04/06 10:46:04;;;;;;;1.45;0.77;;;;;;;;;;5042994;23;20107;-76
2024/04/06 10:48:31;;;;;;;2.65;0.80;;;;;;;;;;5021518;28;20101;-76
2024/04/06 10:50:58;;;;;;;1.65;0.68;;;;;;;;;;5019971;28;20017;-75
2024/04/06 10:53:26;;;;;;;4.38;0.93;;;;;;;;;;5020835;28;20385;-75
2024/04/06 10:55:57;;;;;;;1.63;0.75;;;;;;;;;;5022163;28;20022;-76
2024/04/06 10:58:23;;;;;;;1.95;0.55;;;;;;;;;;5022269;28;20373;-76
2024/04/06 11:00:49;;;;;;;4.95;1.55;;;;;;;;;;5041228;28;20021;-76
2024/04/06 11:03:15;;;;;;;5.22;1.10;;;;;;;;;;5041608;28;20025;-76
2024/04/06 11:05:41;;;;;;;3.13;1.25;;;;;;;;;;5037915;28;20507;-75
2024/04/06 11:08:08;;;;;;;2.38;1.10;;;;;;;;;;5038679;28;20029;-76
2024/04/06 11:10:37;;;;;;;2.25;0.98;;;;;;;;;;5038286;28;20025;-76
2024/04/06 11:13:03;;;;;;;7.28;1.15;;;;;;;;;;5038898;28;20021;-76
2024/04/06 11:15:29;;;;;;;1.15;0.50;;;;;;;;;;5021064;28;20026;-78
2024/04/06 11:17:55;;;;;;;2.05;0.70;;;;;;;;;;5022385;28;20120;-77
2024/04/06 11:20:22;;;;;;;2.28;0.70;;;;;;;;;;5019058;28;20089;-77
2024/04/06 11:22:48;;;;;;;4.03;0.80;;;;;;;;;;5037534;28;20542;-75
2024/04/06 11:25:14;;;;;;;5.72;0.88;;;;;;;;;;5036519;28;20052;-75
2024/04/06 11:27:46;;;;;;;3.50;0.85;;;;;;;;;;5018249;28;20051;-75
2024/04/06 11:30:12;;;;;;;2.85;1.00;;;;;;;;;;5036987;28;20028;-75
2024/04/06 11:32:39;;;;;;;3.28;0.70;;;;;;;;;;5040119;28;20025;-75
2024/04/06 11:35:05;;;;;;;0.95;0.82;;;;;;;;;;5019937;28;20022;-74
2024/04/06 11:37:32;;;;;;;3.40;1.08;;;;;;;;;;5038356;28;20464;-74
2024/04/06 11:39:58;;;;;;;2.55;0.68;;;;;;;;;;5037886;28;20044;-75
2024/04/06 11:42:24;;;;;;;4.07;0.93;;;;;;;;;;5039459;28;20436;-75
2024/04/06 11:44:50;;;;;;;5.90;0.73;;;;;;;;;;5039145;28;20029;-74
2024/04/06 11:47:16;;;;;;;1.05;0.60;;;;;;;;;;5040059;28;20494;-74
2024/04/06 11:49:42;;;;;;;5.32;0.80;;;;;;;;;;5039799;28;20037;-75
2024/04/06 11:52:09;;;;;;;2.40;0.95;;;;;;;;;;5040689;28;20448;-75
2024/04/06 11:54:35;;;;;;;1.73;0.90;;;;;;;;;;5029366;28;20026;-76
2024/04/06 11:57:01;;;;;;;1.25;0.70;;;;;;;;;;5029312;28;20025;-75
2024/04/06 11:59:27;;;;;;;2.15;0.93;;;;;;;;;;5032406;28;20120;-76
2024/04/06 12:01:53;;;;;;;2.92;1.05;;;;;;;;;;5048834;28;20030;-76
2024/04/06 12:04:19;;;;;;;2.58;0.65;;;;;;;;;;5050202;28;20032;-76
2024/04/06 12:06:46;;;;;;;2.47;0.70;;;;;;;;;;5050374;28;20025;-76
2024/04/06 12:09:12;;;;;;;0.95;0.70;;;;;;;;;;5048032;28;20033;-76
2024/04/06 12:11:38;;;;;;;2.35;0.70;;;;;;;;;;5049406;28;20025;-76
2024/04/06 12:14:04;;;;;;;2.65;0.80;;;;;;;;;;5049536;28;20547;-76
2024/04/06 12:16:31;;;;;;;1.27;0.60;;;;;;;;;;5048495;28;20025;-76
2024/04/06 12:18:57;;;;;;;2.83;1.15;;;;;;;;;;5045082;28;20025;-75
2024/04/06 12:21:23;;;;;;;1.70;0.60;;;;;;;;;;5045359;28;20025;-74
2024/04/06 12:23:49;;;;;;;1.48;0.60;;;;;;;;;;5027990;28;20030;-75
2024/04/06 12:26:16;;;;;;;3.65;0.88;;;;;;;;;;5026993;28;20064;-73
2024/04/06 12:28:42;;;;;;;5.30;0.90;;;;;;;;;;5046145;28;20053;-75
2024/04/06 12:31:08;;;;;;;2.70;0.77;;;;;;;;;;5045009;28;20076;-76
2024/04/06 12:33:34;;;;;;;6.97;1.40;;;;;;;;;;5045443;28;20052;-74
2024/04/06 12:36:00;;;;;;;3.78;1.00;;;;;;;;;;5045876;28;20057;-74
2024/04/06 12:38:26;;;;;;;1.90;0.82;;;;;;;;;;5045274;28;20021;-74
2024/04/06 12:40:52;;;;;;;3.83;0.77;;;;;;;;;;5045790;28;20108;-75
2024/04/06 12:43:19;;;;;;;3.30;0.73;;;;;;;;;;5044112;28;20029;-76
2024/04/06 12:45:46;;;;;;;1.52;0.68;;;;;;;;;;5026526;28;20041;-75
2024/04/06 12:48:12;;;;;;;0.77;0.50;;;;;;;;;;5046415;28;20091;-74
2024/04/06 12:50:38;;;;;;;2.33;1.00;;;;;;;;;;5044968;28;20044;-76
2024/04/06 12:53:04;;;;;;;1.25;0.80;;;;;;;;;;5028755;28;20033;-76
2024/04/06 12:55:30;;;;;;;1.92;0.55;;;;;;;;;;5044517;28;20021;-75
2024/04/06 12:57:56;;;;;;;1.08;0.50;;;;;;;;;;5043565;28;20034;-78
2024/04/06 13:00:22;;;;;;;5.15;0.70;;;;;;;;;;5044405;28;20032;-75
2024/04/06 13:02:49;;;;;;;1.85;0.73;;;;;;;;;;5043062;28;20387;-75
2024/04/06 13:05:15;;;;;;;1.38;0.70;;;;;;;;;;5042667;28;20061;-76
2024/04/06 13:07:41;;;;;;;3.35;0.90;;;;;;;;;;5039401;28;20120;-76
2024/04/06 13:10:08;;;;;;;4.57;0.98;;;;;;;;;;5022932;28;20499;-75
2024/04/06 13:12:35;;;;;;;2.55;1.05;;;;;;;;;;5021095;28;20196;-76
2024/04/06 13:15:05;;;;;;;2.13;0.98;;;;;;;;;;5037878;28;20025;-75
2024/04/06 13:17:31;;;;;;;1.08;0.63;;;;;;;;;;5038289;28;20112;-76
2024/04/06 13:19:57;;;;;;;2.10;0.95;;;;;;;;;;5037317;28;20472;-75
2024/04/06 13:22:23;;;;;;;3.33;0.82;;;;;;;;;;5039827;28;20033;-76
2024/04/06 13:24:50;;;;;;;3.90;0.70;;;;;;;;;;5040867;28;20140;-75
2024/04/06 13:27:18;;;;;;;5.10;1.15;;;;;;;;;;5039582;28;20075;-77
2024/04/06 13:29:45;;;;;;;2.50;0.68;;;;;;;;;;5038673;28;20036;-75
2024/04/06 13:32:11;;;;;;;2.38;0.70;;;;;;;;;;5037488;28;20091;-74
2024/04/06 13:34:37;;;;;;;1.20;0.50;;;;;;;;;;5035661;28;20025;-76
2024/04/06 13:37:03;;;;;;;2.85;0.90;;;;;;;;;;5035867;28;20022;-76
2024/04/06 13:39:29;;;;;;;2.08;0.80;;;;;;;;;;5036666;28;20480;-76
2024/04/06 13:41:55;;;;;;;2.88;1.10;;;;;;;;;;5036748;28;20034;-75
2024/04/06 13:44:21;;;;;;;8.25;1.35;;;;;;;;;;5037200;28;20087;-74
2024/04/06 13:46:48;;;;;;;1.02;0.50;;;;;;;;;;5035435;28;20029;-75
2024/04/06 13:49:14;;;;;;;2.08;0.70;;;;;;;;;;5036072;28;20033;-75
2024/04/06 13:51:40;;;;;;;1.88;0.50;;;;;;;;;;5036646;28;20116;-76
2024/04/06 13:54:06;;;;;;;4.03;0.98;;;;;;;;;;5035377;28;20388;-74
2024/04/06 13:56:34;;;;;;;6.20;1.10;;;;;;;;;;5037275;28;20025;-76
2024/04/06 13:59:00;;;;;;;4.07;0.60;;;;;;;;;;5038709;28;20021;-78
2024/04/06 14:01:26;;;;;;;1.65;0.63;;;;;;;;;;5042036;28;20029;-77
2024/04/06 14:03:53;;;;;;;1.60;0.52;;;;;;;;;;5041325;28;20109;-75
2024/04/06 14:06:19;;;;;;;2.65;0.93;;;;;;;;;;5042301;28;20053;-76
2024/04/06 14:08:45;;;;;;;4.53;0.73;;;;;;;;;;5038556;28;20438;-77
2024/04/06 14:11:12;;;;;;;2.70;0.70;;;;;;;;;;5042175;28;20503;-77
2024/04/06 14:13:39;;;;;;;1.60;1.00;;;;;;;;;;5038930;28;20029;-77
2024/04/06 14:16:06;;;;;;;1.88;1.02;;;;;;;;;;5040210;28;20395;-77
2024/04/06 14:18:32;;;;;;;2.25;1.30;;;;;;;;;;5038067;28;20101;-78
2024/04/06 14:20:58;;;;;;;2.80;1.20;;;;;;;;;;5039005;28;20048;-75
2024/04/06 14:23:24;;;;;;;7.35;1.33;;;;;;;;;;5038246;28;20029;-77
2024/04/06 14:25:51;;;;;;;1.95;1.00;;;;;;;;;;5039419;28;20052;-76
2024/04/06 14:28:17;;;;;;;1.13;0.70;;;;;;;;;;5038409;28;20052;-75
2024/04/06 14:30:43;;;;;;;1.00;0.85;;;;;;;;;;5038887;28;20034;-76
2024/04/06 14:33:09;;;;;;;1.67;0.77;;;;;;;;;;5038548;28;20396;-78
2024/04/06 14:35:35;;;;;;;4.15;1.00;;;;;;;;;;5037509;28;20028;-75
2024/04/06 14:38:02;;;;;;;2.22;0.50;;;;;;;;;;5039059;28;20013;-76